sensor_id;sensor_type;location;lat;lon;timestamp;temperature;humidity
10051;DHT22;5065;46.942;7.432;2023-02-15T00:00:20;5.90;99.90
10051;DHT22;5065;46.942;7.432;2023-02-15T00:02:47;5.90;99.90
10051;DHT22;5065;46.942;7.432;2023-02-15T00:05:15;5.90;99.90
10051;DHT22;5065;46.942;7.432;2023-02-15T00:07:42;5.90;99.90
10051;DHT22;5065;46.942;7.432;2023-02-15T00:10:09;5.80;99.90
10051;DHT22;5065;46.942;7.432;2023-02-15T00:12:37;5.80;99.90
10051;DHT22;5065;46.942;7.432;2023-02-15T00:15:05;5.70;99.90
10051;DHT22;5065;46.942;7.432;2023-02-15T00:17:33;5.70;99.90
10051;DHT22;5065;46.942;7.432;2023-02-15T00:20:00;5.70;99.90
10051;DHT22;5065;46.942;7.432;2023-02-15T00:22:28;5.60;99.90
10051;DHT22;5065;46.942;7.432;2023-02-15T00:24:55;5.70;99.90
10051;DHT22;5065;46.942;7.432;2023-02-15T00:27:22;5.70;99.90
10051;DHT22;5065;46.942;7.432;2023-02-15T00:29:49;5.60;99.90
10051;DHT22;5065;46.942;7.432;2023-02-15T00:32:16;5.60;99.90
10051;DHT22;5065;46.942;7.432;2023-02-15T00:34:45;5.50;99.90
10051;DHT22;5065;46.942;7.432;2023-02-15T00:37:12;5.50;99.90
10051;DHT22;5065;46.942;7.432;2023-02-15T00:39:39;5.50;99.90
10051;DHT22;5065;46.942;7.432;2023-02-15T00:42:06;5.40;99.90
10051;DHT22;5065;46.942;7.432;2023-02-15T00:44:34;5.30;99.90
10051;DHT22;5065;46.942;7.432;2023-02-15T00:47:01;5.30;99.90
10051;DHT22;5065;46.942;7.432;2023-02-15T00:49:28;5.30;99.90
10051;DHT22;5065;46.942;7.432;2023-02-15T00:51:56;5.30;99.90
10051;DHT22;5065;46.942;7.432;2023-02-15T00:54:24;5.20;99.90
10051;DHT22;5065;46.942;7.432;2023-02-15T00:56:51;5.20;99.90
10051;DHT22;5065;46.942;7.432;2023-02-15T00:59:18;5.20;99.90
10051;DHT22;5065;46.942;7.432;2023-02-15T01:01:45;5.20;99.90
10051;DHT22;5065;46.942;7.432;2023-02-15T01:04:12;5.20;99.90
10051;DHT22;5065;46.942;7.432;2023-02-15T01:06:39;5.10;99.90
10051;DHT22;5065;46.942;7.432;2023-02-15T01:09:08;5.10;99.90
10051;DHT22;5065;46.942;7.432;2023-02-15T01:11:35;5.00;99.90
10051;DHT22;5065;46.942;7.432;2023-02-15T01:14:02;5.00;99.90
10051;DHT22;5065;46.942;7.432;2023-02-15T01:16:31;5.00;99.90
10051;DHT22;5065;46.942;7.432;2023-02-15T01:18:58;5.00;99.90
10051;DHT22;5065;46.942;7.432;2023-02-15T01:21:26;4.90;99.90
10051;DHT22;5065;46.942;7.432;2023-02-15T01:23:53;4.90;99.90
10051;DHT22;5065;46.942;7.432;2023-02-15T01:26:22;4.90;99.90
10051;DHT22;5065;46.942;7.432;2023-02-15T01:28:49;4.90;99.90
10051;DHT22;5065;46.942;7.432;2023-02-15T01:31:17;5.00;99.90
10051;DHT22;5065;46.942;7.432;2023-02-15T01:33:45;5.00;99.90
10051;DHT22;5065;46.942;7.432;2023-02-15T01:36:13;4.90;99.90
10051;DHT22;5065;46.942;7.432;2023-02-15T01:38:40;4.90;99.90
10051;DHT22;5065;46.942;7.432;2023-02-15T01:41:07;4.90;99.90
10051;DHT22;5065;46.942;7.432;2023-02-15T01:43:51;4.90;99.90
10051;DHT22;5065;46.942;7.432;2023-02-15T01:46:23;4.80;99.90
10051;DHT22;5065;46.942;7.432;2023-02-15T01:48:55;4.80;99.90
10051;DHT22;5065;46.942;7.432;2023-02-15T01:51:25;4.80;99.90
10051;DHT22;5065;46.942;7.432;2023-02-15T01:53:59;4.80;99.90
10051;DHT22;5065;46.942;7.432;2023-02-15T01:56:29;4.80;99.90
10051;DHT22;5065;46.942;7.432;2023-02-15T01:59:03;4.80;99.90
10051;DHT22;5065;46.942;7.432;2023-02-15T02:01:32;4.80;99.90
10051;DHT22;5065;46.942;7.432;2023-02-15T02:04:05;4.70;99.90
10051;DHT22;5065;46.942;7.432;2023-02-15T02:06:36;4.70;99.90
10051;DHT22;5065;46.942;7.432;2023-02-15T02:09:04;4.70;99.90
10051;DHT22;5065;46.942;7.432;2023-02-15T02:11:32;4.60;99.90
10051;DHT22;5065;46.942;7.432;2023-02-15T02:14:01;4.50;99.90
10051;DHT22;5065;46.942;7.432;2023-02-15T02:16:34;4.40;99.90
10051;DHT22;5065;46.942;7.432;2023-02-15T02:19:37;4.40;99.90
10051;DHT22;5065;46.942;7.432;2023-02-15T02:22:28;4.50;99.90
10051;DHT22;5065;46.942;7.432;2023-02-15T02:25:27;4.50;99.90
10051;DHT22;5065;46.942;7.432;2023-02-15T02:28:09;4.50;99.90
10051;DHT22;5065;46.942;7.432;2023-02-15T02:30:59;4.40;99.90
10051;DHT22;5065;46.942;7.432;2023-02-15T02:33:46;4.40;99.90
10051;DHT22;5065;46.942;7.432;2023-02-15T02:36:20;4.40;99.90
10051;DHT22;5065;46.942;7.432;2023-02-15T02:39:01;4.40;99.90
10051;DHT22;5065;46.942;7.432;2023-02-15T02:41:35;4.30;99.90
10051;DHT22;5065;46.942;7.432;2023-02-15T02:44:08;4.30;99.90
10051;DHT22;5065;46.942;7.432;2023-02-15T02:46:41;4.30;99.90
10051;DHT22;5065;46.942;7.432;2023-02-15T02:49:13;4.30;99.90
10051;DHT22;5065;46.942;7.432;2023-02-15T02:51:40;4.20;99.90
10051;DHT22;5065;46.942;7.432;2023-02-15T02:54:07;4.20;99.90
10051;DHT22;5065;46.942;7.432;2023-02-15T02:56:37;4.20;99.90
10051;DHT22;5065;46.942;7.432;2023-02-15T02:59:09;4.30;99.90
10051;DHT22;5065;46.942;7.432;2023-02-15T03:01:40;4.20;99.90
10051;DHT22;5065;46.942;7.432;2023-02-15T03:04:10;4.10;99.90
10051;DHT22;5065;46.942;7.432;2023-02-15T03:06:41;4.10;99.90
10051;DHT22;5065;46.942;7.432;2023-02-15T03:09:15;4.10;99.90
10051;DHT22;5065;46.942;7.432;2023-02-15T03:11:45;4.20;99.90
10051;DHT22;5065;46.942;7.432;2023-02-15T03:14:13;4.20;99.90
10051;DHT22;5065;46.942;7.432;2023-02-15T03:16:43;4.20;99.90
10051;DHT22;5065;46.942;7.432;2023-02-15T03:19:15;4.20;99.90
10051;DHT22;5065;46.942;7.432;2023-02-15T03:21:47;4.20;99.90
10051;DHT22;5065;46.942;7.432;2023-02-15T03:24:17;4.20;99.90
10051;DHT22;5065;46.942;7.432;2023-02-15T03:26:49;4.20;99.90
10051;DHT22;5065;46.942;7.432;2023-02-15T03:29:18;4.20;99.90
10051;DHT22;5065;46.942;7.432;2023-02-15T03:31:51;4.20;99.90
10051;DHT22;5065;46.942;7.432;2023-02-15T03:34:20;4.20;99.90
10051;DHT22;5065;46.942;7.432;2023-02-15T03:36:52;4.20;99.90
10051;DHT22;5065;46.942;7.432;2023-02-15T03:39:29;4.10;99.90
10051;DHT22;5065;46.942;7.432;2023-02-15T03:42:03;4.10;99.90
10051;DHT22;5065;46.942;7.432;2023-02-15T03:44:39;4.10;99.90
10051;DHT22;5065;46.942;7.432;2023-02-15T03:47:11;4.00;99.90
10051;DHT22;5065;46.942;7.432;2023-02-15T03:49:43;4.00;99.90
10051;DHT22;5065;46.942;7.432;2023-02-15T03:52:14;4.10;99.90
10051;DHT22;5065;46.942;7.432;2023-02-15T03:54:43;4.10;99.90
10051;DHT22;5065;46.942;7.432;2023-02-15T03:57:15;4.10;99.90
10051;DHT22;5065;46.942;7.432;2023-02-15T04:00:02;4.00;99.90
10051;DHT22;5065;46.942;7.432;2023-02-15T04:05:39;4.10;99.90
10051;DHT22;5065;46.942;7.432;2023-02-15T04:08:08;4.00;99.90
10051;DHT22;5065;46.942;7.432;2023-02-15T04:10:35;3.90;99.90
10051;DHT22;5065;46.942;7.432;2023-02-15T04:13:21;3.90;99.90
10051;DHT22;5065;46.942;7.432;2023-02-15T04:15:49;3.90;99.90
10051;DHT22;5065;46.942;7.432;2023-02-15T04:18:31;3.90;99.90
10051;DHT22;5065;46.942;7.432;2023-02-15T04:21:16;3.90;99.90
10051;DHT22;5065;46.942;7.432;2023-02-15T04:24:02;3.90;99.90
10051;DHT22;5065;46.942;7.432;2023-02-15T04:26:47;3.90;99.90
10051;DHT22;5065;46.942;7.432;2023-02-15T04:29:15;3.90;99.90
10051;DHT22;5065;46.942;7.432;2023-02-15T04:31:42;3.90;99.90
10051;DHT22;5065;46.942;7.432;2023-02-15T04:34:09;3.90;99.90
10051;DHT22;5065;46.942;7.432;2023-02-15T04:36:36;3.90;99.90
10051;DHT22;5065;46.942;7.432;2023-02-15T04:39:06;3.80;99.90
10051;DHT22;5065;46.942;7.432;2023-02-15T04:41:34;3.80;99.90
10051;DHT22;5065;46.942;7.432;2023-02-15T04:44:01;3.80;99.90
10051;DHT22;5065;46.942;7.432;2023-02-15T04:46:28;3.90;99.90
10051;DHT22;5065;46.942;7.432;2023-02-15T04:48:55;3.90;99.90
10051;DHT22;5065;46.942;7.432;2023-02-15T04:51:23;3.90;99.90
10051;DHT22;5065;46.942;7.432;2023-02-15T04:53:50;3.90;99.90
10051;DHT22;5065;46.942;7.432;2023-02-15T04:56:19;4.00;99.90
10051;DHT22;5065;46.942;7.432;2023-02-15T04:58:47;4.00;99.90
10051;DHT22;5065;46.942;7.432;2023-02-15T05:01:14;4.00;99.90
10051;DHT22;5065;46.942;7.432;2023-02-15T05:03:41;3.90;99.90
10051;DHT22;5065;46.942;7.432;2023-02-15T05:06:09;3.90;99.90
10051;DHT22;5065;46.942;7.432;2023-02-15T05:08:36;3.90;99.90
10051;DHT22;5065;46.942;7.432;2023-02-15T05:11:03;3.90;99.90
10051;DHT22;5065;46.942;7.432;2023-02-15T05:13:31;3.90;99.90
10051;DHT22;5065;46.942;7.432;2023-02-15T05:15:58;3.90;99.90
10051;DHT22;5065;46.942;7.432;2023-02-15T05:18:26;3.90;99.90
10051;DHT22;5065;46.942;7.432;2023-02-15T05:20:53;3.90;99.90
10051;DHT22;5065;46.942;7.432;2023-02-15T05:23:20;3.90;99.90
10051;DHT22;5065;46.942;7.432;2023-02-15T05:25:48;3.90;99.90
10051;DHT22;5065;46.942;7.432;2023-02-15T05:28:35;3.90;99.90
10051;DHT22;5065;46.942;7.432;2023-02-15T05:31:05;3.90;99.90
10051;DHT22;5065;46.942;7.432;2023-02-15T05:33:33;3.90;99.90
10051;DHT22;5065;46.942;7.432;2023-02-15T05:36:01;3.90;99.90
10051;DHT22;5065;46.942;7.432;2023-02-15T05:38:28;3.90;99.90
10051;DHT22;5065;46.942;7.432;2023-02-15T05:40:56;3.90;99.90
10051;DHT22;5065;46.942;7.432;2023-02-15T05:43:23;3.80;99.90
10051;DHT22;5065;46.942;7.432;2023-02-15T05:45:53;3.80;99.90
10051;DHT22;5065;46.942;7.432;2023-02-15T05:48:22;3.80;99.90
10051;DHT22;5065;46.942;7.432;2023-02-15T05:50:57;3.80;99.90
10051;DHT22;5065;46.942;7.432;2023-02-15T05:53:24;3.80;99.90
10051;DHT22;5065;46.942;7.432;2023-02-15T05:55:52;3.80;99.90
10051;DHT22;5065;46.942;7.432;2023-02-15T05:58:19;3.70;99.90
10051;DHT22;5065;46.942;7.432;2023-02-15T06:00:46;3.70;99.90
10051;DHT22;5065;46.942;7.432;2023-02-15T06:03:15;3.70;99.90
10051;DHT22;5065;46.942;7.432;2023-02-15T06:05:42;3.70;99.90
10051;DHT22;5065;46.942;7.432;2023-02-15T06:08:10;3.70;99.90
10051;DHT22;5065;46.942;7.432;2023-02-15T06:10:37;3.60;99.90
10051;DHT22;5065;46.942;7.432;2023-02-15T06:13:05;3.60;99.90
10051;DHT22;5065;46.942;7.432;2023-02-15T06:15:33;3.60;99.90
10051;DHT22;5065;46.942;7.432;2023-02-15T06:18:00;3.60;99.90
10051;DHT22;5065;46.942;7.432;2023-02-15T06:20:29;3.60;99.90
10051;DHT22;5065;46.942;7.432;2023-02-15T06:22:56;3.60;99.90
10051;DHT22;5065;46.942;7.432;2023-02-15T06:25:23;3.60;99.90
10051;DHT22;5065;46.942;7.432;2023-02-15T06:27:50;3.70;99.90
10051;DHT22;5065;46.942;7.432;2023-02-15T06:30:18;3.60;99.90
10051;DHT22;5065;46.942;7.432;2023-02-15T06:32:45;3.70;99.90
10051;DHT22;5065;46.942;7.432;2023-02-15T06:35:12;3.70;99.90
10051;DHT22;5065;46.942;7.432;2023-02-15T06:37:41;3.70;99.90
10051;DHT22;5065;46.942;7.432;2023-02-15T06:40:09;3.60;99.90
10051;DHT22;5065;46.942;7.432;2023-02-15T06:42:36;3.60;99.90
10051;DHT22;5065;46.942;7.432;2023-02-15T06:45:03;3.50;99.90
10051;DHT22;5065;46.942;7.432;2023-02-15T06:47:31;3.50;99.90
10051;DHT22;5065;46.942;7.432;2023-02-15T06:49:58;3.50;99.90
10051;DHT22;5065;46.942;7.432;2023-02-15T06:52:25;3.50;99.90
10051;DHT22;5065;46.942;7.432;2023-02-15T06:54:54;3.50;99.90
10051;DHT22;5065;46.942;7.432;2023-02-15T06:57:21;3.50;99.90
10051;DHT22;5065;46.942;7.432;2023-02-15T06:59:48;3.60;99.90
10051;DHT22;5065;46.942;7.432;2023-02-15T07:02:15;3.60;99.90
10051;DHT22;5065;46.942;7.432;2023-02-15T07:04:42;3.50;99.90
10051;DHT22;5065;46.942;7.432;2023-02-15T07:07:11;3.60;99.90
10051;DHT22;5065;46.942;7.432;2023-02-15T07:09:38;3.70;99.90
10051;DHT22;5065;46.942;7.432;2023-02-15T07:12:08;3.90;99.90
10051;DHT22;5065;46.942;7.432;2023-02-15T07:14:53;4.10;99.90
10051;DHT22;5065;46.942;7.432;2023-02-15T07:17:20;4.20;99.90
10051;DHT22;5065;46.942;7.432;2023-02-15T07:19:47;4.40;99.90
10051;DHT22;5065;46.942;7.432;2023-02-15T07:22:14;4.60;99.90
10051;DHT22;5065;46.942;7.432;2023-02-15T07:24:42;4.80;99.90
10051;DHT22;5065;46.942;7.432;2023-02-15T07:27:10;5.00;99.90
10051;DHT22;5065;46.942;7.432;2023-02-15T07:29:37;5.20;99.90
10051;DHT22;5065;46.942;7.432;2023-02-15T07:32:04;5.50;99.90
10051;DHT22;5065;46.942;7.432;2023-02-15T07:34:31;5.60;99.90
10051;DHT22;5065;46.942;7.432;2023-02-15T07:36:58;5.80;99.90
10051;DHT22;5065;46.942;7.432;2023-02-15T07:39:26;6.10;99.90
10051;DHT22;5065;46.942;7.432;2023-02-15T07:41:53;6.30;99.90
10051;DHT22;5065;46.942;7.432;2023-02-15T07:44:21;6.30;99.90
10051;DHT22;5065;46.942;7.432;2023-02-15T07:46:48;6.40;99.90
10051;DHT22;5065;46.942;7.432;2023-02-15T07:49:15;6.50;99.90
10051;DHT22;5065;46.942;7.432;2023-02-15T07:51:43;6.70;99.90
10051;DHT22;5065;46.942;7.432;2023-02-15T07:54:10;6.90;99.90
10051;DHT22;5065;46.942;7.432;2023-02-15T07:56:37;7.00;99.90
10051;DHT22;5065;46.942;7.432;2023-02-15T07:59:04;7.20;99.90
10051;DHT22;5065;46.942;7.432;2023-02-15T08:01:37;7.40;99.90
10051;DHT22;5065;46.942;7.432;2023-02-15T08:04:06;7.50;99.90
10051;DHT22;5065;46.942;7.432;2023-02-15T08:06:34;7.50;99.90
10051;DHT22;5065;46.942;7.432;2023-02-15T08:09:03;7.60;99.90
10051;DHT22;5065;46.942;7.432;2023-02-15T08:11:32;7.70;99.90
10051;DHT22;5065;46.942;7.432;2023-02-15T08:14:04;7.90;99.90
10051;DHT22;5065;46.942;7.432;2023-02-15T08:16:35;8.10;99.90
10051;DHT22;5065;46.942;7.432;2023-02-15T08:19:05;8.20;99.90
10051;DHT22;5065;46.942;7.432;2023-02-15T08:21:34;8.40;99.90
10051;DHT22;5065;46.942;7.432;2023-02-15T08:24:03;8.50;99.90
10051;DHT22;5065;46.942;7.432;2023-02-15T08:26:31;8.40;99.90
10051;DHT22;5065;46.942;7.432;2023-02-15T08:28:59;8.40;99.90
10051;DHT22;5065;46.942;7.432;2023-02-15T08:31:26;8.40;99.90
10051;DHT22;5065;46.942;7.432;2023-02-15T08:33:56;8.40;99.90
10051;DHT22;5065;46.942;7.432;2023-02-15T08:36:26;8.40;99.90
10051;DHT22;5065;46.942;7.432;2023-02-15T08:38:54;8.40;99.90
10051;DHT22;5065;46.942;7.432;2023-02-15T08:41:22;8.50;99.90
10051;DHT22;5065;46.942;7.432;2023-02-15T08:43:52;8.50;99.90
10051;DHT22;5065;46.942;7.432;2023-02-15T08:46:21;8.40;99.90
10051;DHT22;5065;46.942;7.432;2023-02-15T08:48:48;8.40;99.90
10051;DHT22;5065;46.942;7.432;2023-02-15T08:51:19;8.50;99.90
10051;DHT22;5065;46.942;7.432;2023-02-15T08:53:48;8.50;99.90
10051;DHT22;5065;46.942;7.432;2023-02-15T08:56:16;8.60;99.90
10051;DHT22;5065;46.942;7.432;2023-02-15T08:58:45;8.80;99.90
10051;DHT22;5065;46.942;7.432;2023-02-15T09:01:14;9.00;99.90
10051;DHT22;5065;46.942;7.432;2023-02-15T09:03:43;9.10;99.90
10051;DHT22;5065;46.942;7.432;2023-02-15T09:06:11;9.20;99.90
10051;DHT22;5065;46.942;7.432;2023-02-15T09:08:40;9.30;99.90
10051;DHT22;5065;46.942;7.432;2023-02-15T09:11:09;9.30;99.90
10051;DHT22;5065;46.942;7.432;2023-02-15T09:13:37;9.20;99.90
10051;DHT22;5065;46.942;7.432;2023-02-15T09:16:06;9.20;99.90
10051;DHT22;5065;46.942;7.432;2023-02-15T09:18:34;9.20;99.90
10051;DHT22;5065;46.942;7.432;2023-02-15T09:21:07;9.10;99.90
10051;DHT22;5065;46.942;7.432;2023-02-15T09:23:34;9.20;99.90
10051;DHT22;5065;46.942;7.432;2023-02-15T09:26:05;9.20;99.90
10051;DHT22;5065;46.942;7.432;2023-02-15T09:28:32;9.30;99.90
10051;DHT22;5065;46.942;7.432;2023-02-15T09:31:08;9.30;99.90
10051;DHT22;5065;46.942;7.432;2023-02-15T09:33:36;9.40;99.90
10051;DHT22;5065;46.942;7.432;2023-02-15T09:36:04;9.50;99.90
10051;DHT22;5065;46.942;7.432;2023-02-15T09:38:31;9.60;99.90
10051;DHT22;5065;46.942;7.432;2023-02-15T09:41:15;9.70;99.90
10051;DHT22;5065;46.942;7.432;2023-02-15T09:43:55;9.80;99.90
10051;DHT22;5065;46.942;7.432;2023-02-15T09:46:37;9.90;99.90
10051;DHT22;5065;46.942;7.432;2023-02-15T09:49:13;10.10;99.90
10051;DHT22;5065;46.942;7.432;2023-02-15T09:52:13;10.20;99.90
10051;DHT22;5065;46.942;7.432;2023-02-15T09:54:55;10.30;99.90
10051;DHT22;5065;46.942;7.432;2023-02-15T09:57:30;10.40;99.90
10051;DHT22;5065;46.942;7.432;2023-02-15T10:00:09;10.50;99.90
10051;DHT22;5065;46.942;7.432;2023-02-15T10:03:00;10.70;99.90
10051;DHT22;5065;46.942;7.432;2023-02-15T10:05:39;10.60;99.90
10051;DHT22;5065;46.942;7.432;2023-02-15T10:08:30;10.60;99.90
10051;DHT22;5065;46.942;7.432;2023-02-15T10:11:05;10.60;99.90
10051;DHT22;5065;46.942;7.432;2023-02-15T10:13:57;10.80;99.90
10051;DHT22;5065;46.942;7.432;2023-02-15T10:16:31;10.80;99.90
10051;DHT22;5065;46.942;7.432;2023-02-15T10:19:07;10.90;99.90
10051;DHT22;5065;46.942;7.432;2023-02-15T10:21:48;11.00;99.90
10051;DHT22;5065;46.942;7.432;2023-02-15T10:24:34;11.10;99.90
10051;DHT22;5065;46.942;7.432;2023-02-15T10:27:10;11.30;99.90
10051;DHT22;5065;46.942;7.432;2023-02-15T10:29:43;11.30;99.90
10051;DHT22;5065;46.942;7.432;2023-02-15T10:32:20;11.40;99.90
10051;DHT22;5065;46.942;7.432;2023-02-15T10:34:52;11.40;99.90
10051;DHT22;5065;46.942;7.432;2023-02-15T10:37:48;11.50;99.90
10051;DHT22;5065;46.942;7.432;2023-02-15T10:40:25;11.50;99.90
10051;DHT22;5065;46.942;7.432;2023-02-15T10:43:13;11.50;99.90
10051;DHT22;5065;46.942;7.432;2023-02-15T10:45:49;11.60;99.90
10051;DHT22;5065;46.942;7.432;2023-02-15T10:48:48;11.70;99.90
10051;DHT22;5065;46.942;7.432;2023-02-15T10:51:25;11.70;99.90
10051;DHT22;5065;46.942;7.432;2023-02-15T10:54:05;11.70;99.90
10051;DHT22;5065;46.942;7.432;2023-02-15T10:56:41;11.80;99.90
10051;DHT22;5065;46.942;7.432;2023-02-15T10:59:44;11.80;99.90
10051;DHT22;5065;46.942;7.432;2023-02-15T11:02:24;11.80;99.90
10051;DHT22;5065;46.942;7.432;2023-02-15T11:05:01;11.80;99.90
10051;DHT22;5065;46.942;7.432;2023-02-15T11:07:35;11.90;99.90
10051;DHT22;5065;46.942;7.432;2023-02-15T11:10:13;11.90;99.90
10051;DHT22;5065;46.942;7.432;2023-02-15T11:12:42;11.90;99.90
10051;DHT22;5065;46.942;7.432;2023-02-15T11:15:16;11.90;99.90
10051;DHT22;5065;46.942;7.432;2023-02-15T11:17:52;11.90;99.90
10051;DHT22;5065;46.942;7.432;2023-02-15T11:20:27;12.00;99.90
10051;DHT22;5065;46.942;7.432;2023-02-15T11:22:56;12.00;99.90
10051;DHT22;5065;46.942;7.432;2023-02-15T11:25:26;12.10;99.90
10051;DHT22;5065;46.942;7.432;2023-02-15T11:27:56;12.10;99.90
10051;DHT22;5065;46.942;7.432;2023-02-15T11:30:25;12.20;99.90
10051;DHT22;5065;46.942;7.432;2023-02-15T11:33:00;12.20;99.90
10051;DHT22;5065;46.942;7.432;2023-02-15T11:35:32;12.30;99.90
10051;DHT22;5065;46.942;7.432;2023-02-15T11:38:10;12.30;99.90
10051;DHT22;5065;46.942;7.432;2023-02-15T11:40:44;12.40;99.90
10051;DHT22;5065;46.942;7.432;2023-02-15T11:43:16;12.40;99.90
10051;DHT22;5065;46.942;7.432;2023-02-15T11:45:46;12.40;99.90
10051;DHT22;5065;46.942;7.432;2023-02-15T11:48:15;12.50;99.90
10051;DHT22;5065;46.942;7.432;2023-02-15T11:50:44;12.50;99.90
10051;DHT22;5065;46.942;7.432;2023-02-15T11:53:13;12.50;99.90
10051;DHT22;5065;46.942;7.432;2023-02-15T11:55:43;12.60;99.90
10051;DHT22;5065;46.942;7.432;2023-02-15T11:58:21;12.60;99.90
10051;DHT22;5065;46.942;7.432;2023-02-15T12:00:53;12.60;99.90
10051;DHT22;5065;46.942;7.432;2023-02-15T12:03:27;12.60;99.90
10051;DHT22;5065;46.942;7.432;2023-02-15T12:06:00;12.60;99.90
10051;DHT22;5065;46.942;7.432;2023-02-15T12:08:36;12.70;99.90
10051;DHT22;5065;46.942;7.432;2023-02-15T12:11:07;12.80;99.90
10051;DHT22;5065;46.942;7.432;2023-02-15T12:13:54;12.80;99.90
10051;DHT22;5065;46.942;7.432;2023-02-15T12:16:22;12.80;99.90
10051;DHT22;5065;46.942;7.432;2023-02-15T12:18:53;12.80;99.90
10051;DHT22;5065;46.942;7.432;2023-02-15T12:21:28;12.90;99.90
10051;DHT22;5065;46.942;7.432;2023-02-15T12:24:00;12.90;99.90
10051;DHT22;5065;46.942;7.432;2023-02-15T12:26:30;12.90;99.90
10051;DHT22;5065;46.942;7.432;2023-02-15T12:28:59;12.90;99.90
10051;DHT22;5065;46.942;7.432;2023-02-15T12:31:32;13.00;99.90
10051;DHT22;5065;46.942;7.432;2023-02-15T12:34:09;13.00;99.90
10051;DHT22;5065;46.942;7.432;2023-02-15T12:36:43;13.00;99.90
10051;DHT22;5065;46.942;7.432;2023-02-15T12:39:22;13.00;99.90
10051;DHT22;5065;46.942;7.432;2023-02-15T12:42:02;13.00;99.90
10051;DHT22;5065;46.942;7.432;2023-02-15T12:44:31;13.10;99.90
10051;DHT22;5065;46.942;7.432;2023-02-15T12:47:01;13.10;99.90
10051;DHT22;5065;46.942;7.432;2023-02-15T12:49:32;13.10;99.90
10051;DHT22;5065;46.942;7.432;2023-02-15T12:52:00;13.10;99.90
10051;DHT22;5065;46.942;7.432;2023-02-15T12:54:39;13.10;99.90
10051;DHT22;5065;46.942;7.432;2023-02-15T12:57:23;13.00;99.70
10051;DHT22;5065;46.942;7.432;2023-02-15T12:59:54;13.10;99.50
10051;DHT22;5065;46.942;7.432;2023-02-15T13:02:27;13.00;99.90
10051;DHT22;5065;46.942;7.432;2023-02-15T13:05:03;13.10;99.50
10051;DHT22;5065;46.942;7.432;2023-02-15T13:07:31;13.10;99.80
10051;DHT22;5065;46.942;7.432;2023-02-15T13:09:59;13.10;99.60
10051;DHT22;5065;46.942;7.432;2023-02-15T13:12:28;13.10;99.90
10051;DHT22;5065;46.942;7.432;2023-02-15T13:14:57;13.10;98.90
10051;DHT22;5065;46.942;7.432;2023-02-15T13:17:27;13.10;98.80
10051;DHT22;5065;46.942;7.432;2023-02-15T13:19:59;13.10;99.60
10051;DHT22;5065;46.942;7.432;2023-02-15T13:22:33;13.10;99.80
10051;DHT22;5065;46.942;7.432;2023-02-15T13:25:09;13.10;99.50
10051;DHT22;5065;46.942;7.432;2023-02-15T13:27:39;13.10;99.50
10051;DHT22;5065;46.942;7.432;2023-02-15T13:30:22;13.10;99.90
10051;DHT22;5065;46.942;7.432;2023-02-15T13:32:54;13.10;99.30
10051;DHT22;5065;46.942;7.432;2023-02-15T13:35:27;13.10;98.70
10051;DHT22;5065;46.942;7.432;2023-02-15T13:38:06;13.10;98.70
10051;DHT22;5065;46.942;7.432;2023-02-15T13:40:38;13.10;98.50
10051;DHT22;5065;46.942;7.432;2023-02-15T13:43:23;13.10;98.30
10051;DHT22;5065;46.942;7.432;2023-02-15T13:46:12;13.10;98.10
10051;DHT22;5065;46.942;7.432;2023-02-15T13:48:46;13.20;98.10
10051;DHT22;5065;46.942;7.432;2023-02-15T13:51:22;13.20;98.00
10051;DHT22;5065;46.942;7.432;2023-02-15T13:54:05;13.20;98.10
10051;DHT22;5065;46.942;7.432;2023-02-15T13:56:49;13.20;98.00
10051;DHT22;5065;46.942;7.432;2023-02-15T14:05:40;13.20;97.30
10051;DHT22;5065;46.942;7.432;2023-02-15T14:08:19;13.20;97.00
10051;DHT22;5065;46.942;7.432;2023-02-15T14:10:57;13.20;97.30
10051;DHT22;5065;46.942;7.432;2023-02-15T14:16:45;13.20;97.30
10051;DHT22;5065;46.942;7.432;2023-02-15T14:19:21;13.20;95.90
10051;DHT22;5065;46.942;7.432;2023-02-15T14:21:54;13.20;96.90
10051;DHT22;5065;46.942;7.432;2023-02-15T14:24:30;13.20;97.30
10051;DHT22;5065;46.942;7.432;2023-02-15T14:27:07;13.20;97.40
10051;DHT22;5065;46.942;7.432;2023-02-15T14:29:47;13.20;98.30
10051;DHT22;5065;46.942;7.432;2023-02-15T14:32:20;13.20;97.70
10051;DHT22;5065;46.942;7.432;2023-02-15T14:34:52;13.30;97.90
10051;DHT22;5065;46.942;7.432;2023-02-15T14:37:26;13.30;99.20
10051;DHT22;5065;46.942;7.432;2023-02-15T14:40:02;13.30;99.00
10051;DHT22;5065;46.942;7.432;2023-02-15T14:42:55;13.30;99.10
10051;DHT22;5065;46.942;7.432;2023-02-15T14:45:29;13.30;99.20
10051;DHT22;5065;46.942;7.432;2023-02-15T14:48:09;13.30;99.60
10051;DHT22;5065;46.942;7.432;2023-02-15T14:50:40;13.30;99.00
10051;DHT22;5065;46.942;7.432;2023-02-15T14:56:23;13.30;99.70
10051;DHT22;5065;46.942;7.432;2023-02-15T14:59:18;13.30;99.90
10051;DHT22;5065;46.942;7.432;2023-02-15T15:01:57;13.30;99.90
10051;DHT22;5065;46.942;7.432;2023-02-15T15:04:29;13.30;99.90
10051;DHT22;5065;46.942;7.432;2023-02-15T15:07:02;13.30;99.90
10051;DHT22;5065;46.942;7.432;2023-02-15T15:09:34;13.30;99.90
10051;DHT22;5065;46.942;7.432;2023-02-15T15:14:57;13.30;99.90
10051;DHT22;5065;46.942;7.432;2023-02-15T15:17:53;13.30;99.90
10051;DHT22;5065;46.942;7.432;2023-02-15T15:20:39;13.20;99.80
10051;DHT22;5065;46.942;7.432;2023-02-15T15:23:44;13.20;99.90
10051;DHT22;5065;46.942;7.432;2023-02-15T15:26:24;13.20;99.50
10051;DHT22;5065;46.942;7.432;2023-02-15T15:28:58;13.20;99.90
10051;DHT22;5065;46.942;7.432;2023-02-15T15:31:30;13.20;99.90
10051;DHT22;5065;46.942;7.432;2023-02-15T15:34:18;13.10;99.90
10051;DHT22;5065;46.942;7.432;2023-02-15T15:37:12;13.10;99.90
10051;DHT22;5065;46.942;7.432;2023-02-15T15:43:31;13.10;99.80
10051;DHT22;5065;46.942;7.432;2023-02-15T15:46:32;13.10;99.80
10051;DHT22;5065;46.942;7.432;2023-02-15T15:49:08;13.10;99.80
10051;DHT22;5065;46.942;7.432;2023-02-15T15:51:40;13.00;99.90
10051;DHT22;5065;46.942;7.432;2023-02-15T15:54:14;13.00;99.40
10051;DHT22;5065;46.942;7.432;2023-02-15T15:56:44;13.00;98.80
10051;DHT22;5065;46.942;7.432;2023-02-15T15:59:17;12.90;98.80
10051;DHT22;5065;46.942;7.432;2023-02-15T16:01:46;12.90;98.90
10051;DHT22;5065;46.942;7.432;2023-02-15T16:04:22;12.90;99.10
10051;DHT22;5065;46.942;7.432;2023-02-15T16:06:50;12.80;98.30
10051;DHT22;5065;46.942;7.432;2023-02-15T16:09:20;12.80;98.70
10051;DHT22;5065;46.942;7.432;2023-02-15T16:11:48;12.80;98.20
10051;DHT22;5065;46.942;7.432;2023-02-15T16:14:21;12.80;98.10
10051;DHT22;5065;46.942;7.432;2023-02-15T16:16:55;12.70;98.30
10051;DHT22;5065;46.942;7.432;2023-02-15T16:19:26;12.70;98.10
10051;DHT22;5065;46.942;7.432;2023-02-15T16:21:55;12.60;98.40
10051;DHT22;5065;46.942;7.432;2023-02-15T16:24:46;12.60;98.10
10051;DHT22;5065;46.942;7.432;2023-02-15T16:27:32;12.60;97.40
10051;DHT22;5065;46.942;7.432;2023-02-15T16:30:22;12.50;97.70
10051;DHT22;5065;46.942;7.432;2023-02-15T16:32:55;12.40;97.20
10051;DHT22;5065;46.942;7.432;2023-02-15T16:35:22;12.40;97.50
10051;DHT22;5065;46.942;7.432;2023-02-15T16:37:50;12.30;97.60
10051;DHT22;5065;46.942;7.432;2023-02-15T16:40:41;12.30;97.50
10051;DHT22;5065;46.942;7.432;2023-02-15T16:43:16;12.20;96.90
10051;DHT22;5065;46.942;7.432;2023-02-15T16:45:44;12.20;97.20
10051;DHT22;5065;46.942;7.432;2023-02-15T16:48:18;12.10;97.40
10051;DHT22;5065;46.942;7.432;2023-02-15T16:50:50;12.10;97.30